sensor_id;sensor_type;location;lat;lon;timestamp;P1;durP1;ratioP1;P2;durP2;ratioP2
40533;SDS011;26233;51.894;10.192;2023-04-03T00:00:09;2.30;;;1.20;;
40533;SDS011;26233;51.894;10.192;2023-04-03T00:02:37;1.73;;;1.50;;
40533;SDS011;26233;51.894;10.192;2023-04-03T00:05:05;1.83;;;1.20;;
40533;SDS011;26233;51.894;10.192;2023-04-03T00:07:33;1.70;;;1.30;;
40533;SDS011;26233;51.894;10.192;2023-04-03T00:10:02;2.50;;;1.70;;
40533;SDS011;26233;51.894;10.192;2023-04-03T00:12:30;2.07;;;1.27;;
40533;SDS011;26233;51.894;10.192;2023-04-03T00:14:58;1.93;;;1.30;;
40533;SDS011;26233;51.894;10.192;2023-04-03T00:17:25;1.83;;;1.40;;
40533;SDS011;26233;51.894;10.192;2023-04-03T00:19:52;2.97;;;1.67;;
40533;SDS011;26233;51.894;10.192;2023-04-03T00:22:19;1.53;;;1.40;;
40533;SDS011;26233;51.894;10.192;2023-04-03T00:24:46;1.87;;;1.30;;
40533;SDS011;26233;51.894;10.192;2023-04-03T00:27:15;3.13;;;1.47;;
40533;SDS011;26233;51.894;10.192;2023-04-03T00:29:42;3.33;;;1.30;;
40533;SDS011;26233;51.894;10.192;2023-04-03T00:32:09;1.90;;;1.20;;
40533;SDS011;26233;51.894;10.192;2023-04-03T00:34:36;2.13;;;1.47;;
40533;SDS011;26233;51.894;10.192;2023-04-03T00:37:03;1.57;;;1.23;;
40533;SDS011;26233;51.894;10.192;2023-04-03T00:39:30;1.70;;;1.33;;
40533;SDS011;26233;51.894;10.192;2023-04-03T00:41:57;2.40;;;1.30;;
40533;SDS011;26233;51.894;10.192;2023-04-03T00:47:45;2.60;;;1.23;;
40533;SDS011;26233;51.894;10.192;2023-04-03T00:50:12;2.27;;;1.53;;
40533;SDS011;26233;51.894;10.192;2023-04-03T00:52:39;1.37;;;1.20;;
40533;SDS011;26233;51.894;10.192;2023-04-03T00:55:07;2.77;;;1.57;;
40533;SDS011;26233;51.894;10.192;2023-04-03T00:57:35;1.60;;;1.23;;
40533;SDS011;26233;51.894;10.192;2023-04-03T01:00:06;2.13;;;1.47;;
40533;SDS011;26233;51.894;10.192;2023-04-03T01:02:36;1.30;;;1.20;;
40533;SDS011;26233;51.894;10.192;2023-04-03T01:05:07;2.60;;;1.40;;
40533;SDS011;26233;51.894;10.192;2023-04-03T01:07:35;1.73;;;1.20;;
40533;SDS011;26233;51.894;10.192;2023-04-03T01:10:03;1.53;;;1.30;;
40533;SDS011;26233;51.894;10.192;2023-04-03T01:12:34;2.13;;;1.20;;
40533;SDS011;26233;51.894;10.192;2023-04-03T01:15:03;2.13;;;1.23;;
40533;SDS011;26233;51.894;10.192;2023-04-03T01:17:33;2.30;;;1.40;;
40533;SDS011;26233;51.894;10.192;2023-04-03T01:20:13;2.97;;;1.30;;
40533;SDS011;26233;51.894;10.192;2023-04-03T01:23:14;1.57;;;1.07;;
40533;SDS011;26233;51.894;10.192;2023-04-03T01:25:53;2.33;;;1.30;;
40533;SDS011;26233;51.894;10.192;2023-04-03T01:28:25;2.03;;;1.60;;
40533;SDS011;26233;51.894;10.192;2023-04-03T01:30:57;2.07;;;1.23;;
40533;SDS011;26233;51.894;10.192;2023-04-03T01:33:36;1.43;;;1.10;;
40533;SDS011;26233;51.894;10.192;2023-04-03T01:36:04;2.70;;;1.50;;
40533;SDS011;26233;51.894;10.192;2023-04-03T01:38:33;1.43;;;1.10;;
40533;SDS011;26233;51.894;10.192;2023-04-03T01:41:00;3.93;;;1.40;;
40533;SDS011;26233;51.894;10.192;2023-04-03T01:43:29;1.83;;;1.20;;
40533;SDS011;26233;51.894;10.192;2023-04-03T01:45:56;1.50;;;1.03;;
40533;SDS011;26233;51.894;10.192;2023-04-03T01:48:23;1.60;;;1.10;;
40533;SDS011;26233;51.894;10.192;2023-04-03T01:50:51;2.20;;;1.40;;
40533;SDS011;26233;51.894;10.192;2023-04-03T01:53:21;2.20;;;1.57;;
40533;SDS011;26233;51.894;10.192;2023-04-03T01:55:48;2.17;;;1.40;;
40533;SDS011;26233;51.894;10.192;2023-04-03T01:58:15;2.37;;;1.50;;
40533;SDS011;26233;51.894;10.192;2023-04-03T02:00:43;2.73;;;1.57;;
40533;SDS011;26233;51.894;10.192;2023-04-03T02:03:10;1.80;;;1.40;;
40533;SDS011;26233;51.894;10.192;2023-04-03T02:05:40;3.17;;;1.57;;
40533;SDS011;26233;51.894;10.192;2023-04-03T02:08:08;2.03;;;1.30;;
40533;SDS011;26233;51.894;10.192;2023-04-03T02:10:36;3.17;;;1.50;;
40533;SDS011;26233;51.894;10.192;2023-04-03T02:13:03;2.43;;;1.40;;
40533;SDS011;26233;51.894;10.192;2023-04-03T02:15:30;1.93;;;1.50;;
40533;SDS011;26233;51.894;10.192;2023-04-03T02:17:57;2.90;;;1.77;;
40533;SDS011;26233;51.894;10.192;2023-04-03T02:20:24;1.67;;;1.47;;
40533;SDS011;26233;51.894;10.192;2023-04-03T02:22:51;1.40;;;1.30;;
40533;SDS011;26233;51.894;10.192;2023-04-03T02:25:20;2.13;;;1.40;;
40533;SDS011;26233;51.894;10.192;2023-04-03T02:27:47;1.97;;;1.77;;
40533;SDS011;26233;51.894;10.192;2023-04-03T02:30:14;2.90;;;1.63;;
40533;SDS011;26233;51.894;10.192;2023-04-03T02:32:41;2.77;;;1.37;;
40533;SDS011;26233;51.894;10.192;2023-04-03T02:35:09;1.87;;;1.53;;
40533;SDS011;26233;51.894;10.192;2023-04-03T02:37:37;3.23;;;1.37;;
40533;SDS011;26233;51.894;10.192;2023-04-03T02:40:05;2.17;;;1.40;;
40533;SDS011;26233;51.894;10.192;2023-04-03T02:42:34;2.37;;;1.40;;
40533;SDS011;26233;51.894;10.192;2023-04-03T02:45:02;1.37;;;1.23;;
40533;SDS011;26233;51.894;10.192;2023-04-03T02:47:29;1.87;;;1.30;;
40533;SDS011;26233;51.894;10.192;2023-04-03T02:49:56;2.47;;;1.20;;
40533;SDS011;26233;51.894;10.192;2023-04-03T02:52:23;2.07;;;1.50;;
40533;SDS011;26233;51.894;10.192;2023-04-03T02:54:51;2.40;;;1.30;;
40533;SDS011;26233;51.894;10.192;2023-04-03T02:57:18;1.77;;;1.50;;
40533;SDS011;26233;51.894;10.192;2023-04-03T02:59:47;2.57;;;1.30;;
40533;SDS011;26233;51.894;10.192;2023-04-03T03:02:14;3.80;;;1.83;;
40533;SDS011;26233;51.894;10.192;2023-04-03T03:04:41;3.17;;;1.57;;
40533;SDS011;26233;51.894;10.192;2023-04-03T03:07:08;1.87;;;1.40;;
40533;SDS011;26233;51.894;10.192;2023-04-03T03:09:35;2.13;;;1.40;;
40533;SDS011;26233;51.894;10.192;2023-04-03T03:12:02;2.30;;;1.67;;
40533;SDS011;26233;51.894;10.192;2023-04-03T03:14:30;1.67;;;1.50;;
40533;SDS011;26233;51.894;10.192;2023-04-03T03:16:58;2.20;;;1.60;;
40533;SDS011;26233;51.894;10.192;2023-04-03T03:19:25;2.93;;;1.70;;
40533;SDS011;26233;51.894;10.192;2023-04-03T03:21:52;3.43;;;1.60;;
40533;SDS011;26233;51.894;10.192;2023-04-03T03:24:20;2.57;;;1.60;;
40533;SDS011;26233;51.894;10.192;2023-04-03T03:26:47;1.87;;;1.67;;
40533;SDS011;26233;51.894;10.192;2023-04-03T03:29:14;1.90;;;1.60;;
40533;SDS011;26233;51.894;10.192;2023-04-03T03:31:41;2.80;;;1.50;;
40533;SDS011;26233;51.894;10.192;2023-04-03T03:34:09;2.53;;;1.70;;
40533;SDS011;26233;51.894;10.192;2023-04-03T03:36:36;2.20;;;1.50;;
40533;SDS011;26233;51.894;10.192;2023-04-03T03:39:04;2.10;;;1.40;;
40533;SDS011;26233;51.894;10.192;2023-04-03T03:41:32;2.60;;;1.70;;
40533;SDS011;26233;51.894;10.192;2023-04-03T03:43:59;2.47;;;1.90;;
40533;SDS011;26233;51.894;10.192;2023-04-03T03:46:26;1.90;;;1.60;;
40533;SDS011;26233;51.894;10.192;2023-04-03T03:48:53;1.83;;;1.40;;
40533;SDS011;26233;51.894;10.192;2023-04-03T03:51:22;2.37;;;1.70;;
40533;SDS011;26233;51.894;10.192;2023-04-03T03:53:49;2.73;;;1.70;;
40533;SDS011;26233;51.894;10.192;2023-04-03T03:56:16;2.33;;;1.57;;
40533;SDS011;26233;51.894;10.192;2023-04-03T03:58:43;2.60;;;1.60;;
40533;SDS011;26233;51.894;10.192;2023-04-03T04:01:10;1.90;;;1.50;;
40533;SDS011;26233;51.894;10.192;2023-04-03T04:03:37;2.90;;;1.83;;
40533;SDS011;26233;51.894;10.192;2023-04-03T04:06:04;2.50;;;1.70;;
40533;SDS011;26233;51.894;10.192;2023-04-03T04:08:33;1.60;;;1.50;;
40533;SDS011;26233;51.894;10.192;2023-04-03T04:11:00;2.33;;;1.70;;
40533;SDS011;26233;51.894;10.192;2023-04-03T04:13:27;1.70;;;1.60;;
40533;SDS011;26233;51.894;10.192;2023-04-03T04:15:54;2.10;;;1.77;;
40533;SDS011;26233;51.894;10.192;2023-04-03T04:18:21;2.27;;;1.50;;
40533;SDS011;26233;51.894;10.192;2023-04-03T04:20:49;2.33;;;1.60;;
40533;SDS011;26233;51.894;10.192;2023-04-03T04:23:16;2.53;;;1.57;;
40533;SDS011;26233;51.894;10.192;2023-04-03T04:25:46;3.23;;;1.60;;
40533;SDS011;26233;51.894;10.192;2023-04-03T04:28:13;2.80;;;1.80;;
40533;SDS011;26233;51.894;10.192;2023-04-03T04:30:43;2.90;;;1.63;;
40533;SDS011;26233;51.894;10.192;2023-04-03T04:33:13;3.03;;;1.70;;
40533;SDS011;26233;51.894;10.192;2023-04-03T04:35:41;2.97;;;1.77;;
40533;SDS011;26233;51.894;10.192;2023-04-03T04:38:09;4.03;;;1.67;;
40533;SDS011;26233;51.894;10.192;2023-04-03T04:40:36;2.20;;;1.70;;
40533;SDS011;26233;51.894;10.192;2023-04-03T04:43:04;2.80;;;1.53;;
40533;SDS011;26233;51.894;10.192;2023-04-03T04:45:31;1.83;;;1.70;;
40533;SDS011;26233;51.894;10.192;2023-04-03T04:47:58;2.67;;;1.83;;
40533;SDS011;26233;51.894;10.192;2023-04-03T04:50:25;2.50;;;1.60;;
40533;SDS011;26233;51.894;10.192;2023-04-03T04:52:52;1.83;;;1.50;;
40533;SDS011;26233;51.894;10.192;2023-04-03T04:55:20;2.83;;;1.60;;
40533;SDS011;26233;51.894;10.192;2023-04-03T04:57:47;1.97;;;1.47;;
40533;SDS011;26233;51.894;10.192;2023-04-03T05:00:16;1.50;;;1.40;;
40533;SDS011;26233;51.894;10.192;2023-04-03T05:02:44;1.50;;;1.40;;
40533;SDS011;26233;51.894;10.192;2023-04-03T05:05:11;1.80;;;1.50;;
40533;SDS011;26233;51.894;10.192;2023-04-03T05:07:38;2.90;;;1.60;;
40533;SDS011;26233;51.894;10.192;2023-04-03T05:10:06;1.90;;;1.70;;
40533;SDS011;26233;51.894;10.192;2023-04-03T05:12:35;1.60;;;1.50;;
40533;SDS011;26233;51.894;10.192;2023-04-03T05:15:02;1.90;;;1.30;;
40533;SDS011;26233;51.894;10.192;2023-04-03T05:17:35;2.33;;;1.50;;
40533;SDS011;26233;51.894;10.192;2023-04-03T05:20:02;1.67;;;1.30;;
40533;SDS011;26233;51.894;10.192;2023-04-03T05:22:30;1.93;;;1.50;;
40533;SDS011;26233;51.894;10.192;2023-04-03T05:24:57;3.13;;;1.60;;
40533;SDS011;26233;51.894;10.192;2023-04-03T05:27:26;2.03;;;1.50;;
40533;SDS011;26233;51.894;10.192;2023-04-03T05:29:54;1.77;;;1.20;;
40533;SDS011;26233;51.894;10.192;2023-04-03T05:32:21;3.70;;;1.40;;
40533;SDS011;26233;51.894;10.192;2023-04-03T05:34:51;1.77;;;1.33;;
40533;SDS011;26233;51.894;10.192;2023-04-03T05:37:18;1.60;;;1.40;;
40533;SDS011;26233;51.894;10.192;2023-04-03T05:39:48;1.30;;;1.10;;
40533;SDS011;26233;51.894;10.192;2023-04-03T05:42:16;1.37;;;1.27;;
40533;SDS011;26233;51.894;10.192;2023-04-03T05:44:43;3.13;;;1.30;;
40533;SDS011;26233;51.894;10.192;2023-04-03T05:47:12;1.30;;;1.10;;
40533;SDS011;26233;51.894;10.192;2023-04-03T05:49:39;1.70;;;1.20;;
40533;SDS011;26233;51.894;10.192;2023-04-03T05:52:08;1.37;;;1.10;;
40533;SDS011;26233;51.894;10.192;2023-04-03T05:54:46;1.43;;;1.10;;
40533;SDS011;26233;51.894;10.192;2023-04-03T05:57:13;1.80;;;1.10;;
40533;SDS011;26233;51.894;10.192;2023-04-03T05:59:41;2.20;;;1.40;;
40533;SDS011;26233;51.894;10.192;2023-04-03T06:02:09;2.07;;;1.40;;
40533;SDS011;26233;51.894;10.192;2023-04-03T06:04:37;1.83;;;1.20;;
40533;SDS011;26233;51.894;10.192;2023-04-03T06:07:04;1.50;;;1.40;;
40533;SDS011;26233;51.894;10.192;2023-04-03T06:09:33;2.23;;;1.20;;
40533;SDS011;26233;51.894;10.192;2023-04-03T06:12:01;2.63;;;1.27;;
40533;SDS011;26233;51.894;10.192;2023-04-03T06:14:29;1.93;;;1.20;;
40533;SDS011;26233;51.894;10.192;2023-04-03T06:16:56;1.90;;;1.33;;
40533;SDS011;26233;51.894;10.192;2023-04-03T06:19:25;2.30;;;1.40;;
40533;SDS011;26233;51.894;10.192;2023-04-03T06:21:52;1.75;;;1.35;;
40533;SDS011;26233;51.894;10.192;2023-04-03T06:24:20;1.95;;;1.15;;
40533;SDS011;26233;51.894;10.192;2023-04-03T06:26:50;2.63;;;1.20;;
40533;SDS011;26233;51.894;10.192;2023-04-03T06:29:17;1.98;;;1.30;;
40533;SDS011;26233;51.894;10.192;2023-04-03T06:31:45;2.47;;;1.17;;
40533;SDS011;26233;51.894;10.192;2023-04-03T06:34:12;2.58;;;1.40;;
40533;SDS011;26233;51.894;10.192;2023-04-03T06:36:40;1.80;;;1.38;;
40533;SDS011;26233;51.894;10.192;2023-04-03T06:39:08;1.60;;;1.20;;
40533;SDS011;26233;51.894;10.192;2023-04-03T06:41:39;1.87;;;1.40;;
40533;SDS011;26233;51.894;10.192;2023-04-03T06:44:07;2.00;;;1.27;;
40533;SDS011;26233;51.894;10.192;2023-04-03T06:46:38;7.70;;;1.40;;
40533;SDS011;26233;51.894;10.192;2023-04-03T06:49:05;3.23;;;1.20;;
40533;SDS011;26233;51.894;10.192;2023-04-03T06:51:34;2.40;;;1.17;;
40533;SDS011;26233;51.894;10.192;2023-04-03T06:54:02;1.27;;;1.13;;
40533;SDS011;26233;51.894;10.192;2023-04-03T06:56:31;1.53;;;1.20;;
40533;SDS011;26233;51.894;10.192;2023-04-03T06:58:58;1.53;;;1.10;;
40533;SDS011;26233;51.894;10.192;2023-04-03T07:01:27;2.70;;;1.50;;
40533;SDS011;26233;51.894;10.192;2023-04-03T07:03:55;1.90;;;1.33;;
40533;SDS011;26233;51.894;10.192;2023-04-03T07:06:23;3.13;;;1.20;;
40533;SDS011;26233;51.894;10.192;2023-04-03T07:08:53;1.47;;;1.10;;
40533;SDS011;26233;51.894;10.192;2023-04-03T07:11:20;3.50;;;1.30;;
40533;SDS011;26233;51.894;10.192;2023-04-03T07:13:51;2.03;;;1.20;;
40533;SDS011;26233;51.894;10.192;2023-04-03T07:16:19;1.67;;;1.10;;
40533;SDS011;26233;51.894;10.192;2023-04-03T07:18:47;1.53;;;1.10;;
40533;SDS011;26233;51.894;10.192;2023-04-03T07:21:17;1.70;;;1.00;;
40533;SDS011;26233;51.894;10.192;2023-04-03T07:23:44;1.60;;;1.23;;
40533;SDS011;26233;51.894;10.192;2023-04-03T07:26:15;2.33;;;1.50;;
40533;SDS011;26233;51.894;10.192;2023-04-03T07:28:42;2.03;;;1.27;;
40533;SDS011;26233;51.894;10.192;2023-04-03T07:31:10;1.63;;;1.40;;
40533;SDS011;26233;51.894;10.192;2023-04-03T07:33:38;1.80;;;1.50;;
40533;SDS011;26233;51.894;10.192;2023-04-03T07:36:13;3.50;;;1.37;;
40533;SDS011;26233;51.894;10.192;2023-04-03T07:38:45;1.90;;;1.20;;
40533;SDS011;26233;51.894;10.192;2023-04-03T07:41:16;1.90;;;1.13;;
40533;SDS011;26233;51.894;10.192;2023-04-03T07:43:45;2.00;;;1.27;;
40533;SDS011;26233;51.894;10.192;2023-04-03T07:46:14;1.50;;;1.20;;
40533;SDS011;26233;51.894;10.192;2023-04-03T07:48:42;2.40;;;1.10;;
40533;SDS011;26233;51.894;10.192;2023-04-03T07:51:11;1.23;;;0.90;;
40533;SDS011;26233;51.894;10.192;2023-04-03T07:53:41;1.47;;;1.30;;
40533;SDS011;26233;51.894;10.192;2023-04-03T07:56:08;2.80;;;1.20;;
40533;SDS011;26233;51.894;10.192;2023-04-03T07:58:35;1.50;;;1.40;;
40533;SDS011;26233;51.894;10.192;2023-04-03T08:01:03;2.00;;;1.10;;
40533;SDS011;26233;51.894;10.192;2023-04-03T08:03:31;1.60;;;1.10;;
40533;SDS011;26233;51.894;10.192;2023-04-03T08:06:01;2.33;;;1.30;;
40533;SDS011;26233;51.894;10.192;2023-04-03T08:08:31;4.33;;;1.20;;
40533;SDS011;26233;51.894;10.192;2023-04-03T08:10:59;2.43;;;1.40;;
40533;SDS011;26233;51.894;10.192;2023-04-03T08:13:30;1.63;;;1.20;;
40533;SDS011;26233;51.894;10.192;2023-04-03T08:15:57;1.30;;;1.20;;
40533;SDS011;26233;51.894;10.192;2023-04-03T08:18:32;2.10;;;1.27;;
40533;SDS011;26233;51.894;10.192;2023-04-03T08:20:59;2.58;;;1.38;;
40533;SDS011;26233;51.894;10.192;2023-04-03T08:23:26;2.55;;;1.20;;
40533;SDS011;26233;51.894;10.192;2023-04-03T08:25:55;2.95;;;1.38;;
40533;SDS011;26233;51.894;10.192;2023-04-03T08:28:22;1.70;;;1.02;;
40533;SDS011;26233;51.894;10.192;2023-04-03T08:30:49;4.00;;;1.10;;
40533;SDS011;26233;51.894;10.192;2023-04-03T08:33:16;1.65;;;1.10;;
40533;SDS011;26233;51.894;10.192;2023-04-03T08:35:43;1.65;;;1.02;;
40533;SDS011;26233;51.894;10.192;2023-04-03T08:38:10;2.55;;;1.50;;
40533;SDS011;26233;51.894;10.192;2023-04-03T08:40:37;3.42;;;1.20;;
40533;SDS011;26233;51.894;10.192;2023-04-03T08:43:13;2.35;;;1.30;;
40533;SDS011;26233;51.894;10.192;2023-04-03T08:45:57;1.52;;;0.95;;
40533;SDS011;26233;51.894;10.192;2023-04-03T08:48:31;2.60;;;1.35;;
40533;SDS011;26233;51.894;10.192;2023-04-03T08:51:03;2.17;;;1.23;;
40533;SDS011;26233;51.894;10.192;2023-04-03T08:53:40;2.38;;;1.20;;
40533;SDS011;26233;51.894;10.192;2023-04-03T08:56:11;2.25;;;1.40;;
40533;SDS011;26233;51.894;10.192;2023-04-03T08:58:46;1.90;;;1.20;;
40533;SDS011;26233;51.894;10.192;2023-04-03T09:01:19;1.80;;;1.02;;
40533;SDS011;26233;51.894;10.192;2023-04-03T09:03:50;2.85;;;1.30;;
40533;SDS011;26233;51.894;10.192;2023-04-03T09:06:18;1.48;;;1.17;;
40533;SDS011;26233;51.894;10.192;2023-04-03T09:08:49;1.95;;;1.08;;
40533;SDS011;26233;51.894;10.192;2023-04-03T09:11:24;2.60;;;1.30;;
40533;SDS011;26233;51.894;10.192;2023-04-03T09:13:57;1.63;;;1.10;;
40533;SDS011;26233;51.894;10.192;2023-04-03T09:16:31;1.40;;;0.95;;
40533;SDS011;26233;51.894;10.192;2023-04-03T09:19:10;2.35;;;1.35;;
40533;SDS011;26233;51.894;10.192;2023-04-03T09:21:45;1.52;;;1.27;;
40533;SDS011;26233;51.894;10.192;2023-04-03T09:24:13;2.15;;;1.10;;
40533;SDS011;26233;51.894;10.192;2023-04-03T09:26:44;3.45;;;1.50;;
40533;SDS011;26233;51.894;10.192;2023-04-03T09:29:17;2.13;;;1.30;;
40533;SDS011;26233;51.894;10.192;2023-04-03T09:31:47;2.88;;;1.17;;
40533;SDS011;26233;51.894;10.192;2023-04-03T09:34:18;1.80;;;1.33;;
40533;SDS011;26233;51.894;10.192;2023-04-03T09:36:50;2.53;;;0.98;;
40533;SDS011;26233;51.894;10.192;2023-04-03T09:39:20;1.80;;;1.00;;
40533;SDS011;26233;51.894;10.192;2023-04-03T09:41:56;1.45;;;1.10;;
40533;SDS011;26233;51.894;10.192;2023-04-03T09:44:28;1.88;;;1.20;;
40533;SDS011;26233;51.894;10.192;2023-04-03T09:46:57;2.00;;;1.10;;
40533;SDS011;26233;51.894;10.192;2023-04-03T09:49:25;2.00;;;1.30;;
40533;SDS011;26233;51.894;10.192;2023-04-03T09:51:53;1.20;;;0.85;;
40533;SDS011;26233;51.894;10.192;2023-04-03T09:54:26;1.40;;;1.08;;
40533;SDS011;26233;51.894;10.192;2023-04-03T09:57:06;3.05;;;1.30;;
40533;SDS011;26233;51.894;10.192;2023-04-03T09:59:43;1.50;;;1.00;;
40533;SDS011;26233;51.894;10.192;2023-04-03T10:02:21;1.88;;;0.90;;
40533;SDS011;26233;51.894;10.192;2023-04-03T10:04:59;1.27;;;1.10;;
40533;SDS011;26233;51.894;10.192;2023-04-03T10:07:27;1.85;;;1.25;;
40533;SDS011;26233;51.894;10.192;2023-04-03T10:09:58;1.65;;;1.00;;
40533;SDS011;26233;51.894;10.192;2023-04-03T10:12:26;2.58;;;1.00;;
40533;SDS011;26233;51.894;10.192;2023-04-03T10:14:56;1.15;;;1.00;;
40533;SDS011;26233;51.894;10.192;2023-04-03T10:17:28;2.70;;;1.13;;
40533;SDS011;26233;51.894;10.192;2023-04-03T10:20:07;2.50;;;1.20;;
40533;SDS011;26233;51.894;10.192;2023-04-03T10:22:53;2.38;;;1.20;;
40533;SDS011;26233;51.894;10.192;2023-04-03T10:25:31;1.50;;;1.10;;
40533;SDS011;26233;51.894;10.192;2023-04-03T10:28:08;1.73;;;0.90;;
40533;SDS011;26233;51.894;10.192;2023-04-03T10:30:45;1.47;;;0.93;;
40533;SDS011;26233;51.894;10.192;2023-04-03T10:33:24;1.20;;;1.00;;
40533;SDS011;26233;51.894;10.192;2023-04-03T10:36:07;2.07;;;1.00;;
40533;SDS011;26233;51.894;10.192;2023-04-03T10:38:48;1.13;;;0.90;;
40533;SDS011;26233;51.894;10.192;2023-04-03T10:41:23;1.63;;;1.20;;
40533;SDS011;26233;51.894;10.192;2023-04-03T10:44:04;1.40;;;1.00;;
40533;SDS011;26233;51.894;10.192;2023-04-03T10:46:45;2.80;;;1.40;;
40533;SDS011;26233;51.894;10.192;2023-04-03T10:49:19;1.70;;;0.80;;
40533;SDS011;26233;51.894;10.192;2023-04-03T10:51:58;1.37;;;1.00;;
40533;SDS011;26233;51.894;10.192;2023-04-03T10:54:37;1.67;;;1.17;;
40533;SDS011;26233;51.894;10.192;2023-04-03T10:57:08;1.10;;;1.00;;
40533;SDS011;26233;51.894;10.192;2023-04-03T10:59:37;2.23;;;1.23;;
40533;SDS011;26233;51.894;10.192;2023-04-03T11:02:13;1.43;;;1.10;;
40533;SDS011;26233;51.894;10.192;2023-04-03T11:04:51;1.20;;;1.10;;
40533;SDS011;26233;51.894;10.192;2023-04-03T11:07:20;2.47;;;1.30;;
40533;SDS011;26233;51.894;10.192;2023-04-03T11:09:56;1.77;;;1.10;;
40533;SDS011;26233;51.894;10.192;2023-04-03T11:12:33;1.40;;;1.00;;
40533;SDS011;26233;51.894;10.192;2023-04-03T11:15:11;1.70;;;1.27;;
40533;SDS011;26233;51.894;10.192;2023-04-03T11:17:41;1.93;;;1.17;;
40533;SDS011;26233;51.894;10.192;2023-04-03T11:20:17;1.00;;;0.90;;
40533;SDS011;26233;51.894;10.192;2023-04-03T11:22:53;1.20;;;1.10;;
40533;SDS011;26233;51.894;10.192;2023-04-03T11:25:30;3.63;;;1.17;;
40533;SDS011;26233;51.894;10.192;2023-04-03T11:28:02;1.83;;;1.10;;
40533;SDS011;26233;51.894;10.192;2023-04-03T11:30:32;1.30;;;1.10;;
40533;SDS011;26233;51.894;10.192;2023-04-03T11:36:03;1.40;;;1.10;;
40533;SDS011;26233;51.894;10.192;2023-04-03T11:38:36;1.50;;;1.00;;
40533;SDS011;26233;51.894;10.192;2023-04-03T11:41:10;2.10;;;1.30;;
40533;SDS011;26233;51.894;10.192;2023-04-03T11:43:41;1.23;;;1.10;;
40533;SDS011;26233;51.894;10.192;2023-04-03T11:46:22;1.30;;;1.20;;
40533;SDS011;26233;51.894;10.192;2023-04-03T11:55:42;1.80;;;1.15;;
40533;SDS011;26233;51.894;10.192;2023-04-03T11:58:27;2.00;;;1.08;;
40533;SDS011;26233;51.894;10.192;2023-04-03T12:00:59;1.20;;;1.10;;
40533;SDS011;26233;51.894;10.192;2023-04-03T12:12:42;1.77;;;1.10;;
40533;SDS011;26233;51.894;10.192;2023-04-03T12:24:40;1.30;;;1.00;;
40533;SDS011;26233;51.894;10.192;2023-04-03T12:27:33;1.20;;;1.10;;
40533;SDS011;26233;51.894;10.192;2023-04-03T12:30:07;2.55;;;1.27;;
40533;SDS011;26233;51.894;10.192;2023-04-03T12:32:46;1.65;;;1.20;;
40533;SDS011;26233;51.894;10.192;2023-04-03T12:35:24;1.95;;;1.00;;
40533;SDS011;26233;51.894;10.192;2023-04-03T12:38:17;1.30;;;0.95;;
40533;SDS011;26233;51.894;10.192;2023-04-03T12:41:19;1.42;;;1.05;;
40533;SDS011;26233;51.894;10.192;2023-04-03T12:43:59;1.55;;;1.30;;
40533;SDS011;26233;51.894;10.192;2023-04-03T12:46:42;1.10;;;1.00;;
40533;SDS011;26233;51.894;10.192;2023-04-03T12:49:31;1.98;;;1.10;;
40533;SDS011;26233;51.894;10.192;2023-04-03T12:52:04;1.20;;;1.10;;
40533;SDS011;26233;51.894;10.192;2023-04-03T12:54:45;1.60;;;1.02;;
40533;SDS011;26233;51.894;10.192;2023-04-03T12:57:16;1.23;;;1.13;;
40533;SDS011;26233;51.894;10.192;2023-04-03T12:59:46;1.70;;;1.30;;
40533;SDS011;26233;51.894;10.192;2023-04-03T13:02:20;1.80;;;1.03;;
40533;SDS011;26233;51.894;10.192;2023-04-03T13:04:51;1.43;;;1.00;;
40533;SDS011;26233;51.894;10.192;2023-04-03T13:07:21;1.50;;;0.90;;
40533;SDS011;26233;51.894;10.192;2023-04-03T13:09:57;1.73;;;1.20;;
40533;SDS011;26233;51.894;10.192;2023-04-03T13:12:27;1.10;;;1.00;;
40533;SDS011;26233;51.894;10.192;2023-04-03T13:14:55;1.65;;;1.10;;
40533;SDS011;26233;51.894;10.192;2023-04-03T13:17:24;1.60;;;1.00;;
40533;SDS011;26233;51.894;10.192;2023-04-03T13:19:53;2.10;;;1.10;;
40533;SDS011;26233;51.894;10.192;2023-04-03T13:22:24;1.98;;;1.17;;
40533;SDS011;26233;51.894;10.192;2023-04-03T13:24:55;1.33;;;1.00;;
40533;SDS011;26233;51.894;10.192;2023-04-03T13:27:27;1.40;;;1.10;;
40533;SDS011;26233;51.894;10.192;2023-04-03T13:29:59;1.55;;;1.00;;
40533;SDS011;26233;51.894;10.192;2023-04-03T13:32:30;1.40;;;1.00;;
40533;SDS011;26233;51.894;10.192;2023-04-03T13:34:58;2.03;;;0.90;;
40533;SDS011;26233;51.894;10.192;2023-04-03T13:37:28;1.50;;;1.00;;
40533;SDS011;26233;51.894;10.192;2023-04-03T13:40:01;1.15;;;1.00;;
40533;SDS011;26233;51.894;10.192;2023-04-03T13:42:39;1.05;;;0.90;;
40533;SDS011;26233;51.894;10.192;2023-04-03T13:45:18;1.25;;;1.13;;
40533;SDS011;26233;51.894;10.192;2023-04-03T13:47:49;1.42;;;1.00;;
40533;SDS011;26233;51.894;10.192;2023-04-03T13:50:20;1.10;;;1.00;;
40533;SDS011;26233;51.894;10.192;2023-04-03T13:52:52;1.55;;;1.05;;
40533;SDS011;26233;51.894;10.192;2023-04-03T13:55:26;1.55;;;1.13;;
40533;SDS011;26233;51.894;10.192;2023-04-03T13:57:57;1.58;;;1.00;;
40533;SDS011;26233;51.894;10.192;2023-04-03T14:00:47;1.50;;;1.05;;
40533;SDS011;26233;51.894;10.192;2023-04-03T14:03:18;1.50;;;0.90;;
40533;SDS011;26233;51.894;10.192;2023-04-03T14:05:49;1.40;;;1.00;;
40533;SDS011;26233;51.894;10.192;2023-04-03T14:08:16;1.38;;;1.00;;
40533;SDS011;26233;51.894;10.192;2023-04-03T14:10:45;1.83;;;1.10;;
40533;SDS011;26233;51.894;10.192;2023-04-03T14:13:15;1.80;;;1.10;;
40533;SDS011;26233;51.894;10.192;2023-04-03T14:15:45;1.58;;;1.20;;
40533;SDS011;26233;51.894;10.192;2023-04-03T14:18:17;1.48;;;1.00;;
40533;SDS011;26233;51.894;10.192;2023-04-03T14:20:47;1.08;;;0.95;;
40533;SDS011;26233;51.894;10.192;2023-04-03T14:23:14;0.85;;;0.85;;
40533;SDS011;26233;51.894;10.192;2023-04-03T14:25:42;1.20;;;1.10;;
40533;SDS011;26233;51.894;10.192;2023-04-03T14:28:16;1.30;;;1.08;;
40533;SDS011;26233;51.894;10.192;2023-04-03T14:30:46;1.10;;;0.93;;
40533;SDS011;26233;51.894;10.192;2023-04-03T14:33:16;1.80;;;0.93;;
40533;SDS011;26233;51.894;10.192;2023-04-03T14:35:45;2.10;;;1.02;;
40533;SDS011;26233;51.894;10.192;2023-04-03T14:38:19;1.52;;;1.13;;
40533;SDS011;26233;51.894;10.192;2023-04-03T14:40:50;1.08;;;1.00;;
40533;SDS011;26233;51.894;10.192;2023-04-03T14:43:19;1.45;;;1.10;;
40533;SDS011;26233;51.894;10.192;2023-04-03T14:45:47;1.50;;;1.10;;
40533;SDS011;26233;51.894;10.192;2023-04-03T14:48:17;2.33;;;1.10;;
40533;SDS011;26233;51.894;10.192;2023-04-03T14:50:47;1.95;;;1.20;;
40533;SDS011;26233;51.894;10.192;2023-04-03T14:53:16;1.83;;;1.20;;
40533;SDS011;26233;51.894;10.192;2023-04-03T14:55:44;1.38;;;1.00;;
40533;SDS011;26233;51.894;10.192;2023-04-03T14:58:13;1.50;;;1.20;;
40533;SDS011;26233;51.894;10.192;2023-04-03T15:00:43;1.80;;;1.25;;
40533;SDS011;26233;51.894;10.192;2023-04-03T15:03:12;1.80;;;1.20;;
40533;SDS011;26233;51.894;10.192;2023-04-03T15:05:41;0.77;;;0.77;;
40533;SDS011;26233;51.894;10.192;2023-04-03T15:08:13;1.10;;;1.00;;
40533;SDS011;26233;51.894;10.192;2023-04-03T15:10:48;1.95;;;1.38;;
40533;SDS011;26233;51.894;10.192;2023-04-03T15:13:20;1.20;;;1.10;;
40533;SDS011;26233;51.894;10.192;2023-04-03T15:15:51;1.50;;;1.40;;
40533;SDS011;26233;51.894;10.192;2023-04-03T15:18:19;2.47;;;1.15;;
40533;SDS011;26233;51.894;10.192;2023-04-03T15:20:51;2.05;;;1.20;;
40533;SDS011;26233;51.894;10.192;2023-04-03T15:23:18;1.17;;;1.08;;